Погода Олешковичи 2на 2 недели

Могилёвская область, Белоруссия

24 мая-06 июня
  • 24мая
    Сегодня
    +10°
    +23°
    Ясно и безоблачно
    ВремяПогодаТемператураВлажностьДавлениеВетер, м/сВероятность осадков
    00:00Облачно с прояснениями+15°C56 %752 мм4.4 м/с2 %
    03:00Небольшая облачность+13°C63 %752 мм4.0 м/с2 %
    06:00Ясно и безоблачно+11°C64 %753 мм4.3 м/с2 %
    09:00Ясно и безоблачно+16°C60 %754 мм4.8 м/с2 %
    12:00Ясно и безоблачно+20°C49 %754 мм4.9 м/с2 %
    15:00Ясно и безоблачно+22°C43 %754 мм4.8 м/с2 %
    18:00Ясно и безоблачно+22°C43 %753 мм4.4 м/с2 %
    21:00Ясно и безоблачно+17°C58 %753 мм3.5 м/с2 %
  • 25мая
    Суббота
    +11°
    +24°
    Практически безоблачно
    ВремяПогодаТемператураВлажностьДавлениеВетер, м/сВероятность осадков
    00:00Ясно и безоблачно+14°C60 %753 мм3.7 м/с2 %
    03:00Ясно и безоблачно+12°C64 %753 мм3.1 м/с2 %
    06:00Ясно и безоблачно+11°C69 %753 мм3.2 м/с2 %
    09:00Ясно и безоблачно+17°C62 %753 мм2.8 м/с2 %
    12:00Практически безоблачно+22°C52 %753 мм3.0 м/с2 %
    15:00Практически безоблачно+23°C41 %752 мм3.0 м/с2 %
    18:00Практически безоблачно+23°C41 %751 мм2.6 м/с2 %
    21:00Практически безоблачно+18°C66 %751 мм2.4 м/с2 %
  • 26мая
    Воскресенье
    +11°
    +24°
    Ясно и безоблачно
    ВремяПогодаТемператураВлажностьДавлениеВетер, м/сВероятность осадков
    00:00Ясно и безоблачно+15°C63 %751 мм2.4 м/с2 %
    03:00Ясно и безоблачно+12°C74 %751 мм2.3 м/с2 %
    06:00Практически безоблачно+13°C72 %751 мм1.7 м/с2 %
    09:00Небольшая облачность+19°C53 %752 мм0.8 м/с2 %
    12:00Облачно с прояснениями+22°C40 %752 мм0.9 м/с2 %
    15:00Ясно и безоблачно+24°C37 %752 мм1.3 м/с2 %
    18:00Практически безоблачно+24°C37 %751 мм1.6 м/с2 %
    21:00Практически безоблачно+19°C66 %750 мм2.0 м/с2 %
  • 27мая
    Понедельник
    +13°
    +25°
    Ясно и безоблачно
    ВремяПогодаТемператураВлажностьДавлениеВетер, м/сВероятность осадков
    00:00Ясно и безоблачно+14°C72 %750 мм1.8 м/с2 %
    03:00Ясно и безоблачно+13°C78 %751 мм1.8 м/с2 %
    06:00Ясно и безоблачно+14°C78 %751 мм1.8 м/с2 %
    09:00Ясно и безоблачно+21°C61 %751 мм1.4 м/с2 %
    12:00Практически безоблачно+24°C40 %752 мм2.2 м/с3 %
    15:00Ясно и безоблачно+25°C43 %751 мм2.1 м/с10 %
    18:00Ясно и безоблачно+24°C46 %750 мм1.2 м/с24 %
    21:00Ясно и безоблачно+20°C71 %750 мм2.7 м/с5 %
  • 28мая
    Вторник
    +14°
    +24°
    Практически безоблачно
    ВремяПогодаТемператураВлажностьДавлениеВетер, м/сВероятность осадков
    00:00Ясно и безоблачно+17°C85 %750 мм2.0 м/с2 %
    03:00Ясно и безоблачно+15°C89 %750 мм2.0 м/с2 %
    06:00Ясно и безоблачно+14°C85 %750 мм2.1 м/с2 %
    09:00Ясно и безоблачно+21°C62 %750 мм2.0 м/с2 %
    12:00Практически безоблачно+23°C46 %750 мм2.4 м/с10 %
    15:00Практически безоблачно+24°C48 %749 мм2.3 м/с15 %
    18:00Практически безоблачно+24°C51 %748 мм1.8 м/с23 %
    21:00Практически безоблачно+20°C75 %748 мм0.9 м/с7 %
Мы используем cookies
Соглашаюсь